sensor_id;sensor_type;location;lat;lon;timestamp;pressure;altitude;pressure_sealevel;temperature;humidity
13594;BME280;6449;47.666;9.160;2024-01-06T00:03:46;95744.25;;;5.97;100.00
13594;BME280;6449;47.666;9.160;2024-01-06T00:08:42;95744.72;;;6.02;100.00
13594;BME280;6449;47.666;9.160;2024-01-06T00:13:38;95738.78;;;6.00;100.00
13594;BME280;6449;47.666;9.160;2024-01-06T00:18:32;95745.28;;;5.94;100.00
13594;BME280;6449;47.666;9.160;2024-01-06T00:23:26;95740.09;;;5.94;100.00
13594;BME280;6449;47.666;9.160;2024-01-06T00:28:20;95754.75;;;5.95;100.00
13594;BME280;6449;47.666;9.160;2024-01-06T00:33:15;95744.66;;;5.91;100.00
13594;BME280;6449;47.666;9.160;2024-01-06T00:38:09;95751.75;;;5.89;100.00
13594;BME280;6449;47.666;9.160;2024-01-06T00:43:03;95762.81;;;5.92;100.00
13594;BME280;6449;47.666;9.160;2024-01-06T00:47:56;95760.06;;;5.94;100.00
13594;BME280;6449;47.666;9.160;2024-01-06T00:52:51;95768.56;;;5.96;100.00
13594;BME280;6449;47.666;9.160;2024-01-06T00:57:45;95769.31;;;5.98;100.00
13594;BME280;6449;47.666;9.160;2024-01-06T01:02:39;95773.78;;;5.96;100.00
13594;BME280;6449;47.666;9.160;2024-01-06T01:07:32;95775.16;;;5.89;100.00
13594;BME280;6449;47.666;9.160;2024-01-06T01:12:27;95775.28;;;5.87;100.00
13594;BME280;6449;47.666;9.160;2024-01-06T01:17:20;95786.75;;;5.85;100.00
13594;BME280;6449;47.666;9.160;2024-01-06T01:22:14;95788.19;;;5.89;100.00
13594;BME280;6449;47.666;9.160;2024-01-06T01:27:08;95798.41;;;5.92;100.00
13594;BME280;6449;47.666;9.160;2024-01-06T01:32:04;95807.66;;;5.83;100.00
13594;BME280;6449;47.666;9.160;2024-01-06T01:36:59;95819.97;;;5.81;100.00
13594;BME280;6449;47.666;9.160;2024-01-06T01:41:52;95823.41;;;5.82;100.00
13594;BME280;6449;47.666;9.160;2024-01-06T01:46:46;95828.97;;;5.88;100.00
13594;BME280;6449;47.666;9.160;2024-01-06T01:51:41;95836.66;;;5.90;100.00
13594;BME280;6449;47.666;9.160;2024-01-06T01:56:38;95851.66;;;5.86;100.00
13594;BME280;6449;47.666;9.160;2024-01-06T02:01:33;95842.31;;;5.84;100.00
13594;BME280;6449;47.666;9.160;2024-01-06T02:06:28;95846.47;;;5.86;100.00
13594;BME280;6449;47.666;9.160;2024-01-06T02:11:22;95841.00;;;5.89;100.00
13594;BME280;6449;47.666;9.160;2024-01-06T02:16:16;95834.28;;;5.87;100.00
13594;BME280;6449;47.666;9.160;2024-01-06T02:21:10;95838.94;;;5.94;100.00
13594;BME280;6449;47.666;9.160;2024-01-06T02:26:05;95833.22;;;5.89;100.00
13594;BME280;6449;47.666;9.160;2024-01-06T02:30:59;95844.38;;;5.91;100.00
13594;BME280;6449;47.666;9.160;2024-01-06T02:35:52;95844.44;;;5.90;100.00
13594;BME280;6449;47.666;9.160;2024-01-06T02:40:46;95848.13;;;5.87;100.00
13594;BME280;6449;47.666;9.160;2024-01-06T02:45:41;95850.41;;;5.92;100.00
13594;BME280;6449;47.666;9.160;2024-01-06T02:50:34;95850.47;;;5.90;100.00
13594;BME280;6449;47.666;9.160;2024-01-06T02:55:28;95858.47;;;6.00;100.00
13594;BME280;6449;47.666;9.160;2024-01-06T03:00:21;95867.09;;;6.00;100.00
13594;BME280;6449;47.666;9.160;2024-01-06T03:05:16;95869.94;;;5.97;100.00
13594;BME280;6449;47.666;9.160;2024-01-06T03:10:10;95876.22;;;5.82;100.00
13594;BME280;6449;47.666;9.160;2024-01-06T03:15:04;95875.28;;;5.83;100.00
13594;BME280;6449;47.666;9.160;2024-01-06T03:19:58;95867.59;;;5.82;100.00
13594;BME280;6449;47.666;9.160;2024-01-06T03:24:53;95873.47;;;5.72;100.00
13594;BME280;6449;47.666;9.160;2024-01-06T03:29:46;95872.03;;;5.68;100.00
13594;BME280;6449;47.666;9.160;2024-01-06T03:34:41;95882.66;;;5.65;100.00
13594;BME280;6449;47.666;9.160;2024-01-06T03:39:35;95882.66;;;5.65;100.00
13594;BME280;6449;47.666;9.160;2024-01-06T03:44:30;95888.28;;;5.83;100.00
13594;BME280;6449;47.666;9.160;2024-01-06T03:49:26;95888.13;;;5.73;100.00
13594;BME280;6449;47.666;9.160;2024-01-06T03:54:20;95894.84;;;5.65;100.00
13594;BME280;6449;47.666;9.160;2024-01-06T03:59:13;95901.56;;;5.67;100.00
13594;BME280;6449;47.666;9.160;2024-01-06T04:04:08;95891.88;;;5.69;100.00
13594;BME280;6449;47.666;9.160;2024-01-06T04:09:02;95906.06;;;5.65;100.00
13594;BME280;6449;47.666;9.160;2024-01-06T04:13:55;95915.78;;;5.74;100.00
13594;BME280;6449;47.666;9.160;2024-01-06T04:18:48;95912.69;;;5.69;100.00
13594;BME280;6449;47.666;9.160;2024-01-06T04:23:43;95921.66;;;5.65;100.00
13594;BME280;6449;47.666;9.160;2024-01-06T04:28:37;95925.31;;;5.63;100.00
13594;BME280;6449;47.666;9.160;2024-01-06T04:33:30;95924.34;;;5.64;100.00
13594;BME280;6449;47.666;9.160;2024-01-06T04:38:25;95920.34;;;5.60;100.00
13594;BME280;6449;47.666;9.160;2024-01-06T04:43:20;95936.66;;;5.62;100.00
13594;BME280;6449;47.666;9.160;2024-01-06T04:48:13;95930.63;;;5.61;100.00
13594;BME280;6449;47.666;9.160;2024-01-06T04:53:08;95929.97;;;5.70;100.00
13594;BME280;6449;47.666;9.160;2024-01-06T04:58:01;95938.47;;;5.72;100.00
13594;BME280;6449;47.666;9.160;2024-01-06T05:02:56;95936.19;;;5.68;100.00
13594;BME280;6449;47.666;9.160;2024-01-06T05:07:49;95943.28;;;5.66;100.00
13594;BME280;6449;47.666;9.160;2024-01-06T05:12:46;95949.66;;;5.62;100.00
13594;BME280;6449;47.666;9.160;2024-01-06T05:17:42;95947.25;;;5.59;100.00
13594;BME280;6449;47.666;9.160;2024-01-06T05:22:40;95954.00;;;5.61;100.00
13594;BME280;6449;47.666;9.160;2024-01-06T05:27:33;95952.25;;;5.62;100.00
13594;BME280;6449;47.666;9.160;2024-01-06T05:32:28;95951.41;;;5.61;100.00
13594;BME280;6449;47.666;9.160;2024-01-06T05:37:21;95964.41;;;5.61;100.00
13594;BME280;6449;47.666;9.160;2024-01-06T05:42:16;95968.28;;;5.56;100.00
13594;BME280;6449;47.666;9.160;2024-01-06T05:47:12;95967.47;;;5.55;100.00
13594;BME280;6449;47.666;9.160;2024-01-06T05:52:06;95967.53;;;5.53;100.00
13594;BME280;6449;47.666;9.160;2024-01-06T05:56:59;95983.25;;;5.52;100.00
13594;BME280;6449;47.666;9.160;2024-01-06T06:01:54;95984.53;;;5.46;100.00
13594;BME280;6449;47.666;9.160;2024-01-06T06:06:48;95993.59;;;5.41;100.00
13594;BME280;6449;47.666;9.160;2024-01-06T06:11:41;95997.13;;;5.40;100.00
13594;BME280;6449;47.666;9.160;2024-01-06T06:16:36;95997.00;;;5.41;100.00
13594;BME280;6449;47.666;9.160;2024-01-06T06:21:31;96004.81;;;5.41;100.00
13594;BME280;6449;47.666;9.160;2024-01-06T06:26:24;96000.66;;;5.39;100.00
13594;BME280;6449;47.666;9.160;2024-01-06T06:31:18;96005.03;;;5.38;100.00
13594;BME280;6449;47.666;9.160;2024-01-06T06:36:11;96001.19;;;5.31;100.00
13594;BME280;6449;47.666;9.160;2024-01-06T06:41:06;95996.41;;;5.25;100.00
13594;BME280;6449;47.666;9.160;2024-01-06T06:46:00;96007.84;;;5.22;100.00
13594;BME280;6449;47.666;9.160;2024-01-06T06:50:53;96008.38;;;5.28;100.00
13594;BME280;6449;47.666;9.160;2024-01-06T06:55:49;96017.50;;;5.33;100.00
13594;BME280;6449;47.666;9.160;2024-01-06T07:00:44;96023.63;;;5.32;100.00
13594;BME280;6449;47.666;9.160;2024-01-06T07:05:37;96037.13;;;5.37;100.00
13594;BME280;6449;47.666;9.160;2024-01-06T07:10:31;96039.84;;;5.36;100.00
13594;BME280;6449;47.666;9.160;2024-01-06T07:15:24;96044.00;;;5.38;100.00
13594;BME280;6449;47.666;9.160;2024-01-06T07:20:19;96043.50;;;5.33;100.00
13594;BME280;6449;47.666;9.160;2024-01-06T07:25:13;96048.69;;;5.33;100.00
13594;BME280;6449;47.666;9.160;2024-01-06T07:30:08;96056.88;;;5.27;100.00
13594;BME280;6449;47.666;9.160;2024-01-06T07:35:02;96069.16;;;5.38;100.00
13594;BME280;6449;47.666;9.160;2024-01-06T07:40:00;96074.06;;;5.17;100.00
13594;BME280;6449;47.666;9.160;2024-01-06T07:44:54;96076.44;;;5.20;100.00
13594;BME280;6449;47.666;9.160;2024-01-06T07:49:47;96081.31;;;5.24;100.00
13594;BME280;6449;47.666;9.160;2024-01-06T07:54:40;96081.31;;;5.24;100.00
13594;BME280;6449;47.666;9.160;2024-01-06T07:59:35;96084.66;;;5.26;100.00
13594;BME280;6449;47.666;9.160;2024-01-06T08:04:28;96090.47;;;5.30;100.00
13594;BME280;6449;47.666;9.160;2024-01-06T08:09:22;96087.03;;;5.30;100.00
13594;BME280;6449;47.666;9.160;2024-01-06T08:14:19;96084.97;;;5.35;100.00
13594;BME280;6449;47.666;9.160;2024-01-06T08:19:14;96086.50;;;5.37;100.00
13594;BME280;6449;47.666;9.160;2024-01-06T08:24:08;96079.34;;;5.41;100.00
13594;BME280;6449;47.666;9.160;2024-01-06T08:29:01;96088.28;;;5.49;100.00
13594;BME280;6449;47.666;9.160;2024-01-06T08:33:55;96093.06;;;5.43;100.00
13594;BME280;6449;47.666;9.160;2024-01-06T08:38:50;96102.63;;;5.55;100.00
13594;BME280;6449;47.666;9.160;2024-01-06T08:43:46;96107.75;;;5.44;100.00
13594;BME280;6449;47.666;9.160;2024-01-06T08:48:39;96109.28;;;5.34;100.00
13594;BME280;6449;47.666;9.160;2024-01-06T08:53:33;96122.47;;;5.31;100.00
13594;BME280;6449;47.666;9.160;2024-01-06T08:58:28;96119.50;;;5.49;100.00
13594;BME280;6449;47.666;9.160;2024-01-06T09:03:21;96130.06;;;5.59;100.00
13594;BME280;6449;47.666;9.160;2024-01-06T09:08:19;96125.00;;;5.70;100.00
13594;BME280;6449;47.666;9.160;2024-01-06T09:13:12;96127.16;;;5.76;100.00
13594;BME280;6449;47.666;9.160;2024-01-06T09:18:11;96135.47;;;5.82;100.00
13594;BME280;6449;47.666;9.160;2024-01-06T09:23:06;96139.22;;;5.77;100.00
13594;BME280;6449;47.666;9.160;2024-01-06T09:28:01;96142.75;;;5.76;100.00
13594;BME280;6449;47.666;9.160;2024-01-06T09:32:58;96144.00;;;5.84;100.00
13594;BME280;6449;47.666;9.160;2024-01-06T09:37:52;96135.88;;;5.88;100.00
13594;BME280;6449;47.666;9.160;2024-01-06T09:42:46;96145.06;;;5.94;100.00
13594;BME280;6449;47.666;9.160;2024-01-06T09:47:41;96152.97;;;5.92;100.00
13594;BME280;6449;47.666;9.160;2024-01-06T09:52:40;96153.69;;;5.94;100.00
13594;BME280;6449;47.666;9.160;2024-01-06T09:57:36;96151.31;;;5.91;100.00
13594;BME280;6449;47.666;9.160;2024-01-06T10:02:30;96146.72;;;5.95;100.00
13594;BME280;6449;47.666;9.160;2024-01-06T10:07:26;96143.16;;;5.96;100.00
13594;BME280;6449;47.666;9.160;2024-01-06T10:12:23;96146.28;;;6.01;100.00
13594;BME280;6449;47.666;9.160;2024-01-06T10:17:19;96134.09;;;5.89;100.00
13594;BME280;6449;47.666;9.160;2024-01-06T10:22:12;96137.41;;;5.91;100.00
13594;BME280;6449;47.666;9.160;2024-01-06T10:27:06;96146.19;;;6.02;100.00
13594;BME280;6449;47.666;9.160;2024-01-06T10:32:01;96141.75;;;5.92;100.00
13594;BME280;6449;47.666;9.160;2024-01-06T10:36:57;96150.25;;;5.81;100.00
13594;BME280;6449;47.666;9.160;2024-01-06T10:41:52;96143.16;;;5.83;100.00
13594;BME280;6449;47.666;9.160;2024-01-06T10:46:48;96144.94;;;5.83;100.00
13594;BME280;6449;47.666;9.160;2024-01-06T10:51:45;96145.25;;;5.78;100.00
13594;BME280;6449;47.666;9.160;2024-01-06T10:56:43;96141.94;;;5.76;100.00
13594;BME280;6449;47.666;9.160;2024-01-06T11:01:39;96133.94;;;5.92;100.00
13594;BME280;6449;47.666;9.160;2024-01-06T11:06:35;96128.19;;;5.99;100.00
13594;BME280;6449;47.666;9.160;2024-01-06T11:11:31;96115.47;;;6.08;100.00
13594;BME280;6449;47.666;9.160;2024-01-06T11:16:44;96125.03;;;6.07;100.00
13594;BME280;6449;47.666;9.160;2024-01-06T11:21:38;96128.69;;;6.04;100.00
13594;BME280;6449;47.666;9.160;2024-01-06T11:26:32;96114.22;;;6.13;100.00
13594;BME280;6449;47.666;9.160;2024-01-06T11:32:22;96123.38;;;6.19;100.00
13594;BME280;6449;47.666;9.160;2024-01-06T11:37:25;96112.84;;;6.20;100.00
13594;BME280;6449;47.666;9.160;2024-01-06T11:42:18;96109.06;;;6.24;100.00
13594;BME280;6449;47.666;9.160;2024-01-06T11:47:13;96101.78;;;6.29;100.00
13594;BME280;6449;47.666;9.160;2024-01-06T11:52:10;96101.97;;;6.26;100.00
13594;BME280;6449;47.666;9.160;2024-01-06T11:57:05;96090.31;;;6.32;100.00
13594;BME280;6449;47.666;9.160;2024-01-06T12:01:58;96091.06;;;6.21;100.00
13594;BME280;6449;47.666;9.160;2024-01-06T12:06:52;96087.09;;;6.28;100.00
13594;BME280;6449;47.666;9.160;2024-01-06T12:12:00;96085.91;;;6.33;100.00
13594;BME280;6449;47.666;9.160;2024-01-06T12:16:54;96083.75;;;6.26;100.00
13594;BME280;6449;47.666;9.160;2024-01-06T12:21:50;96074.41;;;6.24;100.00
13594;BME280;6449;47.666;9.160;2024-01-06T12:26:44;96081.59;;;6.20;100.00
13594;BME280;6449;47.666;9.160;2024-01-06T12:31:40;96071.53;;;6.16;100.00
13594;BME280;6449;47.666;9.160;2024-01-06T12:36:37;96064.88;;;6.12;100.00
13594;BME280;6449;47.666;9.160;2024-01-06T12:41:31;96075.94;;;6.02;100.00
13594;BME280;6449;47.666;9.160;2024-01-06T12:46:25;96066.56;;;6.00;100.00
13594;BME280;6449;47.666;9.160;2024-01-06T12:51:20;96075.53;;;5.96;100.00
13594;BME280;6449;47.666;9.160;2024-01-06T12:56:14;96071.28;;;5.95;100.00
13594;BME280;6449;47.666;9.160;2024-01-06T13:01:07;96075.88;;;5.91;100.00
13594;BME280;6449;47.666;9.160;2024-01-06T13:06:03;96068.06;;;5.91;100.00
13594;BME280;6449;47.666;9.160;2024-01-06T13:10:58;96072.59;;;6.00;100.00
13594;BME280;6449;47.666;9.160;2024-01-06T13:15:52;96065.69;;;6.12;100.00
13594;BME280;6449;47.666;9.160;2024-01-06T13:20:48;96070.09;;;6.36;100.00
13594;BME280;6449;47.666;9.160;2024-01-06T13:25:41;96077.41;;;6.30;100.00
13594;BME280;6449;47.666;9.160;2024-01-06T13:30:36;96077.09;;;6.22;100.00
13594;BME280;6449;47.666;9.160;2024-01-06T13:35:31;96081.81;;;6.17;100.00
13594;BME280;6449;47.666;9.160;2024-01-06T13:40:26;96083.91;;;6.12;100.00
13594;BME280;6449;47.666;9.160;2024-01-06T13:45:23;96094.22;;;6.14;100.00
13594;BME280;6449;47.666;9.160;2024-01-06T13:50:21;96098.94;;;6.09;100.00
13594;BME280;6449;47.666;9.160;2024-01-06T13:55:15;96099.00;;;6.07;100.00
13594;BME280;6449;47.666;9.160;2024-01-06T14:00:12;96101.72;;;6.06;100.00
13594;BME280;6449;47.666;9.160;2024-01-06T14:05:13;96093.94;;;6.06;100.00
13594;BME280;6449;47.666;9.160;2024-01-06T14:10:09;96100.06;;;6.04;100.00
13594;BME280;6449;47.666;9.160;2024-01-06T14:15:03;96101.03;;;6.03;100.00
13594;BME280;6449;47.666;9.160;2024-01-06T14:19:58;96099.25;;;6.04;100.00
13594;BME280;6449;47.666;9.160;2024-01-06T14:24:51;96108.19;;;6.00;100.00
13594;BME280;6449;47.666;9.160;2024-01-06T14:29:46;96104.16;;;5.96;100.00
13594;BME280;6449;47.666;9.160;2024-01-06T14:34:40;96106.03;;;5.94;100.00
13594;BME280;6449;47.666;9.160;2024-01-06T14:39:33;96109.69;;;5.91;100.00
13594;BME280;6449;47.666;9.160;2024-01-06T14:44:36;96114.94;;;5.90;100.00
13594;BME280;6449;47.666;9.160;2024-01-06T14:49:34;96111.94;;;5.96;100.00
13594;BME280;6449;47.666;9.160;2024-01-06T14:54:29;96116.72;;;5.89;100.00
13594;BME280;6449;47.666;9.160;2024-01-06T14:59:32;96114.00;;;5.91;100.00
13594;BME280;6449;47.666;9.160;2024-01-06T15:04:32;96128.50;;;5.82;100.00
13594;BME280;6449;47.666;9.160;2024-01-06T15:09:29;96134.03;;;5.77;100.00
13594;BME280;6449;47.666;9.160;2024-01-06T15:14:23;96138.69;;;5.72;100.00
13594;BME280;6449;47.666;9.160;2024-01-06T15:19:16;96139.72;;;5.70;100.00
13594;BME280;6449;47.666;9.160;2024-01-06T15:24:16;96145.88;;;5.69;100.00
13594;BME280;6449;47.666;9.160;2024-01-06T15:29:10;96145.03;;;5.68;100.00
13594;BME280;6449;47.666;9.160;2024-01-06T15:34:04;96144.31;;;5.66;100.00
13594;BME280;6449;47.666;9.160;2024-01-06T15:38:58;96145.97;;;5.67;100.00
13594;BME280;6449;47.666;9.160;2024-01-06T15:43:56;96158.88;;;5.69;100.00
13594;BME280;6449;47.666;9.160;2024-01-06T15:48:49;96151.91;;;5.69;100.00
13594;BME280;6449;47.666;9.160;2024-01-06T15:53:43;96147.44;;;5.71;100.00
13594;BME280;6449;47.666;9.160;2024-01-06T15:58:36;96144.41;;;5.77;100.00
13594;BME280;6449;47.666;9.160;2024-01-06T16:03:32;96140.44;;;5.85;100.00
13594;BME280;6449;47.666;9.160;2024-01-06T16:08:27;96156.06;;;5.85;100.00
13594;BME280;6449;47.666;9.160;2024-01-06T16:13:21;96158.44;;;5.75;100.00
13594;BME280;6449;47.666;9.160;2024-01-06T16:18:14;96163.06;;;5.71;100.00
13594;BME280;6449;47.666;9.160;2024-01-06T16:23:09;96162.94;;;5.60;100.00
13594;BME280;6449;47.666;9.160;2024-01-06T16:28:08;96177.91;;;5.57;100.00
13594;BME280;6449;47.666;9.160;2024-01-06T16:33:05;96176.03;;;5.59;100.00
13594;BME280;6449;47.666;9.160;2024-01-06T16:37:59;96178.97;;;5.54;100.00
13594;BME280;6449;47.666;9.160;2024-01-06T16:42:55;96178.75;;;5.57;100.00
13594;BME280;6449;47.666;9.160;2024-01-06T16:47:49;96174.19;;;5.61;100.00
13594;BME280;6449;47.666;9.160;2024-01-06T16:52:43;96175.72;;;5.63;100.00
13594;BME280;6449;47.666;9.160;2024-01-06T16:57:36;96177.31;;;5.66;100.00
13594;BME280;6449;47.666;9.160;2024-01-06T17:02:33;96176.47;;;5.65;100.00
13594;BME280;6449;47.666;9.160;2024-01-06T17:07:29;96182.59;;;5.64;100.00
13594;BME280;6449;47.666;9.160;2024-01-06T17:12:23;96185.09;;;5.66;100.00
13594;BME280;6449;47.666;9.160;2024-01-06T17:17:17;96184.16;;;5.67;100.00
13594;BME280;6449;47.666;9.160;2024-01-06T17:22:12;96191.25;;;5.65;100.00
13594;BME280;6449;47.666;9.160;2024-01-06T17:27:06;96199.88;;;5.65;100.00
13594;BME280;6449;47.666;9.160;2024-01-06T17:31:59;96196.22;;;5.68;100.00
13594;BME280;6449;47.666;9.160;2024-01-06T17:36:53;96207.56;;;5.67;100.00
13594;BME280;6449;47.666;9.160;2024-01-06T17:41:47;96210.78;;;5.58;100.00
13594;BME280;6449;47.666;9.160;2024-01-06T17:46:51;96214.84;;;5.62;100.00
13594;BME280;6449;47.666;9.160;2024-01-06T17:51:45;96212.66;;;5.56;100.00
13594;BME280;6449;47.666;9.160;2024-01-06T17:56:38;96223.66;;;5.46;100.00
13594;BME280;6449;47.666;9.160;2024-01-06T18:01:33;96219.09;;;5.50;100.00
13594;BME280;6449;47.666;9.160;2024-01-06T18:06:27;96224.38;;;5.36;100.00
13594;BME280;6449;47.666;9.160;2024-01-06T18:11:22;96223.53;;;5.35;100.00
13594;BME280;6449;47.666;9.160;2024-01-06T18:16:16;96230.47;;;5.22;100.00
13594;BME280;6449;47.666;9.160;2024-01-06T18:21:14;96234.66;;;5.37;100.00
13594;BME280;6449;47.666;9.160;2024-01-06T18:26:12;96236.94;;;5.42;100.00
13594;BME280;6449;47.666;9.160;2024-01-06T18:31:08;96251.34;;;5.20;100.00
13594;BME280;6449;47.666;9.160;2024-01-06T18:36:02;96250.53;;;5.20;100.00
13594;BME280;6449;47.666;9.160;2024-01-06T18:40:59;96252.19;;;5.21;100.00
13594;BME280;6449;47.666;9.160;2024-01-06T18:45:54;96237.94;;;5.26;100.00
13594;BME280;6449;47.666;9.160;2024-01-06T18:50:47;96232.38;;;5.33;100.00
13594;BME280;6449;47.666;9.160;2024-01-06T18:55:43;96228.09;;;5.32;100.00
13594;BME280;6449;47.666;9.160;2024-01-06T19:00:38;96227.91;;;5.35;100.00
13594;BME280;6449;47.666;9.160;2024-01-06T19:05:31;96216.63;;;5.21;100.00
13594;BME280;6449;47.666;9.160;2024-01-06T19:10:25;96220.91;;;5.22;100.00
13594;BME280;6449;47.666;9.160;2024-01-06T19:15:23;96230.47;;;5.22;100.00
13594;BME280;6449;47.666;9.160;2024-01-06T19:20:22;96227.53;;;5.14;100.00
13594;BME280;6449;47.666;9.160;2024-01-06T19:25:16;96225.13;;;5.11;100.00
13594;BME280;6449;47.666;9.160;2024-01-06T19:30:10;96226.13;;;5.22;100.00
13594;BME280;6449;47.666;9.160;2024-01-06T19:35:10;96227.44;;;5.15;100.00
13594;BME280;6449;47.666;9.160;2024-01-06T19:40:07;96234.75;;;5.23;100.00
13594;BME280;6449;47.666;9.160;2024-01-06T19:45:02;96230.84;;;5.16;100.00
13594;BME280;6449;47.666;9.160;2024-01-06T19:49:57;96227.00;;;5.09;100.00
13594;BME280;6449;47.666;9.160;2024-01-06T19:54:50;96230.44;;;5.09;100.00
13594;BME280;6449;47.666;9.160;2024-01-06T19:59:45;96232.72;;;5.01;100.00
13594;BME280;6449;47.666;9.160;2024-01-06T20:04:42;96233.03;;;5.09;100.00
13594;BME280;6449;47.666;9.160;2024-01-06T20:09:36;96238.44;;;5.06;100.00
13594;BME280;6449;47.666;9.160;2024-01-06T20:14:30;96239.31;;;4.92;100.00
13594;BME280;6449;47.666;9.160;2024-01-06T20:19:25;96234.94;;;4.93;100.00
13594;BME280;6449;47.666;9.160;2024-01-06T20:24:19;96232.38;;;4.79;100.00
13594;BME280;6449;47.666;9.160;2024-01-06T20:29:13;96233.28;;;4.92;100.00
13594;BME280;6449;47.666;9.160;2024-01-06T20:34:06;96240.19;;;4.79;100.00
13594;BME280;6449;47.666;9.160;2024-01-06T20:39:03;96231.69;;;4.62;100.00
13594;BME280;6449;47.666;9.160;2024-01-06T20:43:57;96227.72;;;4.57;100.00
13594;BME280;6449;47.666;9.160;2024-01-06T20:48:56;96219.03;;;4.85;100.00
13594;BME280;6449;47.666;9.160;2024-01-06T20:53:51;96223.53;;;4.95;100.00
13594;BME280;6449;47.666;9.160;2024-01-06T20:58:46;96218.09;;;4.86;100.00
13594;BME280;6449;47.666;9.160;2024-01-06T21:03:40;96216.66;;;4.94;100.00
13594;BME280;6449;47.666;9.160;2024-01-06T21:08:35;96209.69;;;4.95;100.00
13594;BME280;6449;47.666;9.160;2024-01-06T21:13:32;96218.03;;;5.00;100.00
13594;BME280;6449;47.666;9.160;2024-01-06T21:18:27;96218.72;;;4.89;100.00
13594;BME280;6449;47.666;9.160;2024-01-06T21:23:21;96223.28;;;4.86;100.00
13594;BME280;6449;47.666;9.160;2024-01-06T21:28:31;96217.34;;;4.84;100.00
13594;BME280;6449;47.666;9.160;2024-01-06T21:33:26;96218.19;;;4.84;100.00
13594;BME280;6449;47.666;9.160;2024-01-06T21:38:21;96222.16;;;4.90;100.00
13594;BME280;6449;47.666;9.160;2024-01-06T21:43:16;96223.91;;;4.89;100.00
13594;BME280;6449;47.666;9.160;2024-01-06T21:48:13;96225.78;;;4.87;100.00
13594;BME280;6449;47.666;9.160;2024-01-06T21:53:07;96225.94;;;4.71;100.00
13594;BME280;6449;47.666;9.160;2024-01-06T21:58:01;96227.28;;;5.04;100.00
13594;BME280;6449;47.666;9.160;2024-01-06T22:02:54;96233.31;;;5.05;100.00
13594;BME280;6449;47.666;9.160;2024-01-06T22:07:50;96237.53;;;4.93;100.00
13594;BME280;6449;47.666;9.160;2024-01-06T22:12:44;96240.78;;;4.96;100.00
13594;BME280;6449;47.666;9.160;2024-01-06T22:17:40;96234.75;;;4.96;100.00
13594;BME280;6449;47.666;9.160;2024-01-06T22:22:34;96242.41;;;4.85;100.00
13594;BME280;6449;47.666;9.160;2024-01-06T22:27:29;96238.88;;;4.86;100.00
13594;BME280;6449;47.666;9.160;2024-01-06T22:32:26;96236.47;;;4.83;100.00
13594;BME280;6449;47.666;9.160;2024-01-06T22:37:20;96239.88;;;4.83;100.00
13594;BME280;6449;47.666;9.160;2024-01-06T22:42:13;96237.91;;;4.74;100.00
13594;BME280;6449;47.666;9.160;2024-01-06T22:47:07;96239.63;;;4.73;100.00
13594;BME280;6449;47.666;9.160;2024-01-06T22:52:03;96244.47;;;4.80;100.00
13594;BME280;6449;47.666;9.160;2024-01-06T22:56:57;96246.53;;;4.75;100.00
13594;BME280;6449;47.666;9.160;2024-01-06T23:01:52;96254.22;;;4.62;100.00
13594;BME280;6449;47.666;9.160;2024-01-06T23:06:46;96253.75;;;4.69;100.00
13594;BME280;6449;47.666;9.160;2024-01-06T23:11:44;96252.81;;;4.85;100.00
13594;BME280;6449;47.666;9.160;2024-01-06T23:16:38;96255.59;;;4.67;100.00
13594;BME280;6449;47.666;9.160;2024-01-06T23:21:32;96252.00;;;4.70;100.00
13594;BME280;6449;47.666;9.160;2024-01-06T23:26:25;96257.34;;;4.81;100.00
13594;BME280;6449;47.666;9.160;2024-01-06T23:31:20;96262.63;;;4.80;100.00
13594;BME280;6449;47.666;9.160;2024-01-06T23:36:14;96263.19;;;4.85;100.00
13594;BME280;6449;47.666;9.160;2024-01-06T23:41:08;96264.75;;;4.73;100.00
13594;BME280;6449;47.666;9.160;2024-01-06T23:46:01;96263.94;;;4.72;100.00
13594;BME280;6449;47.666;9.160;2024-01-06T23:51:01;96267.66;;;4.68;100.00
13594;BME280;6449;47.666;9.160;2024-01-06T23:55:57;96270.09;;;4.57;100.00
